Current Metar reports for airports in our Region

Nearby METAR Reports

Metar reports are mainly used by pilots for information on what is happening at their destination during their pre-flight weather briefings and by meteorologists to assist in short term forecasts. A raw Metar is one of the most universal ways to communicate weather information in the world and are usually transmitted by airports, but some come from permanent sanctioned weather observatories.

Listed below are Metars from airports within 100 miles of our station here in Smethport Pa. The first one of course is the Bradford Regional Airport, then the Olean NY airport and so on. Each airport has it's own table to display it's data and at the bottom of the table is 'Raw' Metar for each airport. Most pilots and weather forecasters can look at the raw data and tell you what is up, but we use a script that handles all of the details for us.

KBFD - Bradford, Pennsylvania, USA
Distance from our station: NW 7mi
Updated: Sat, 18-Nov-2017 12:53am EST
Clear
Clear
 Wind from SE
Wind:: SE 7 mph
Temperature: 30°F
Wind Chill: 23°F
Dew Point: 25°F
Humidity: 80%
Barometer: 29.85 inHg
Clouds: Clear
Visibility: 10 miles
2017/11/18 05:53 KBFD 180553Z AUTO 14006KT 10SM CLR M01/M04 A2985 RMK AO2 SLP125 T10061044 10006 21011 58034
KOLE - Olean, New York, USA
Distance from our station: NNE 37mi
Updated: Sat, 18-Nov-2017 12:55am EST
Clear
Clear
 Wind from S
Wind:: S 9 mph, Gust: 17 mph
Temperature: 32°F
Wind Chill: 24°F
Dew Point: 23°F
Humidity: 69%
Barometer: 29.83 inHg
Clouds: Clear
Visibility: 10 miles
2017/11/18 05:55 KOLE 180555Z AUTO 19008G15KT 10SM CLR 00/M05 A2983 RMK AO2
 
KELZ - Wellsville, New York, USA
Distance from our station: NE 40mi
Updated: Sat, 18-Nov-2017 12:56am EST
Clear
Clear
 Wind from SSE
Wind:: SSE 6 mph
Temperature: 37°F
Wind Chill: 32°F
Dew Point: 19°F
Humidity: 48%
Barometer: 29.87 inHg
Clouds: Clear
Visibility: 10 miles
2017/11/18 05:56 KELZ 180556Z AUTO 16005KT 10SM CLR 03/M07 A2987 RMK AO2 PRESFR SLP129 T00281072 10033 20006 58032 $
KDUJ - Du Bois, Pennsylvania, USA
Distance from our station: SSW 42mi
Updated: Sat, 18-Nov-2017 12:53am EST
Clear
Clear
 Wind from ESE
Wind:: ESE 10 mph
Temperature: 34°F
Wind Chill: 26°F
Dew Point: 25°F
Humidity: 70%
Barometer: 29.86 inHg
Clouds: Clear
Visibility: 10 miles
2017/11/18 05:53 KDUJ 180553Z AUTO 12009KT 10SM CLR 01/M04 A2986 RMK AO2 SLP126 T00061044 10006 21022 58037
 
KJHW - Jamestown, New York, USA
Distance from our station: NW 46mi
Updated: Sat, 18-Nov-2017 12:56am EST
Clear
Clear
 Wind from S
Wind:: S 8 mph
Temperature: 34°F
Wind Chill: 27°F
Dew Point: 25°F
Humidity: 70%
Barometer: 29.82 inHg
Clouds: Clear
Visibility: 10 miles
2017/11/18 05:56 KJHW 180556Z AUTO 18007KT 10SM CLR 01/M04 A2982 RMK AO2 SLP119 T00061039 10011 21006 58037 FZRANO
KFIG - Clearfield, Pennsylvania, USA
Distance from our station: S 47mi
Updated: Sat, 18-Nov-2017 12:54am EST
Clear
Clear
 Wind from NNE
Wind:: NNE 6 mph
Temperature: 27°F
Wind Chill: 20°F
Dew Point: 25°F
Humidity: 93%
Barometer: 29.92 inHg
Clouds: Clear
Visibility: 10 miles
2017/11/18 05:54 KFIG 180554Z AUTO 02005KT 10SM CLR M03/M04 A2992 RMK AO2 SLP147 T10281039 11006 21033 58031
 
KDKK - Dunkirk, New York, USA
Distance from our station: NW 66mi
Updated: Sat, 18-Nov-2017 12:53am EST
Clear
Clear
 Wind from W
Wind:: W 9 mph
Temperature: 39°F
Wind Chill: 33°F
Dew Point: 27°F
Humidity: 61%
Barometer: 29.80 inHg
Clouds: Clear
Visibility: 10 miles
2017/11/18 05:53 KDKK 180553Z AUTO 27008KT 10SM CLR 04/M03 A2980 RMK AO2 PRESFR SLP096 T00391033 10039 20000 58045
KUNV - State College, Pennsylvania, USA
Distance from our station: SSE 71mi
Updated: Sat, 18-Nov-2017 12:55am EST
Clear
Clear
 Wind from calm
Wind:: Calm
Temperature: 32°F
Dew Point: 25°F
Humidity: 75%
Barometer: 29.96 inHg
Clouds: Clear
Visibility: 10 miles
2017/11/18 05:55 KUNV 180555Z AUTO 00000KT 10SM CLR 00/M04 A2996 RMK AO2 T10011040 10020 21015
 
KFKL - Franklin, Pennsylvania, USA
Distance from our station: WSW 72mi
Updated: Sat, 18-Nov-2017 12:56am EST
Clear
Clear
 Wind from SSE
Wind:: SSE 10 mph
Temperature: 34°F
Wind Chill: 26°F
Dew Point: 25°F
Humidity: 70%
Barometer: 29.83 inHg
Clouds: Clear
Visibility: 10 miles
2017/11/18 05:56 KFKL 180556Z AUTO 15009KT 10SM CLR 01/M04 A2983 RMK AO2 SLP116 T00111039 10022 21006 58039 FZRANO
KDSV - Dansville, New York, USA
Distance from our station: NE 73mi
Updated: Sat, 18-Nov-2017 12:54am EST
Clear
Clear
 Wind from SSE
Wind:: SSE 12 mph
Temperature: 36°F
Wind Chill: 28°F
Dew Point: 23°F
Humidity: 60%
Barometer: 29.89 inHg
Clouds: Clear
Visibility: 10 miles
2017/11/18 05:54 KDSV 180554Z AUTO 15010KT 10SM CLR 02/M05 A2989 RMK AO2 SLP134 T00221050 10022 20000 58035
 
KIDI - Indiana/Stewart, Pennsylvania, USA
Distance from our station: SSW 81mi
Updated: Sat, 18-Nov-2017 12:55am EST
Clear
Clear
 Wind from SSE
Wind:: SSE 10 mph
Temperature: 41°F
Wind Chill: 35°F
Dew Point: 27°F
Humidity: 57%
Barometer: 29.91 inHg
Clouds: Clear
Visibility: 10 miles
2017/11/18 05:55 KIDI 180555Z AUTO 15009KT 10SM CLR 05/M03 A2991 RMK A01
KBUF - Buffalo/Cheektow, New York, USA
Distance from our station: N 84mi
Updated: Sat, 18-Nov-2017 12:54am EST
Overcast
Overcast
 Wind from SE
Wind:: SE 3 mph
Temperature: 34°F
Dew Point: 27°F
Humidity: 75%
Barometer: 29.82 inHg
Clouds: Overcast
Visibility: 10 miles
Cloud details: Few Clouds 10000 ft
Partly Cloudy 14000 ft
Mostly Cloudy 17000 ft
Overcast 24000 ft
2017/11/18 05:54 KBUF 180554Z 13003KT 10SM FEW100 SCT140 BKN170 OVC240 01/M03 A2982 RMK AO2 SLP106 T00111033 10017 20006 58040
 
KGKJ - Meadville, Pennsylvania, USA
Distance from our station: W 86mi
Updated: Sat, 18-Nov-2017 12:53am EST
Clear
Clear
 Wind from varies
Wind:: varies 5 mph
Temperature: 36°F
Wind Chill: 32°F
Dew Point: 27°F
Humidity: 70%
Barometer: 29.81 inHg
Clouds: Clear
Visibility: 10 miles
2017/11/18 05:53 KGKJ 180553Z AUTO VRB04KT 10SM CLR 02/M03 A2981 RMK AO2 SLP103 T00221028 10028 20017 58042
KERI - Erie, Pennsylvania, USA
Distance from our station: WNW 87mi
Updated: Sat, 18-Nov-2017 12:51am EST
Clear
Clear
 Wind from S
Wind:: S 20 mph, Gust: 30 mph
Temperature: 43°F
Wind Chill: 34°F
Dew Point: 25°F
Humidity: 49%
Barometer: 29.77 inHg
Clouds: Clear
Visibility: 10 miles
2017/11/18 05:51 KERI 180551Z AUTO 17017G26KT 10SM CLR 06/M04 A2977 RMK AO2 PK WND 15026/0549 SLP086 T00561039 10056 20028 58043
 
KELM - Elmira, New York, USA
Distance from our station: ENE 90mi
Updated: Sat, 18-Nov-2017 12:53am EST
Clear
Clear
 Wind from calm
Wind:: Calm
Temperature: 28°F
Dew Point: 27°F
Humidity: 93%
Barometer: 29.94 inHg
Clouds: Clear
Visibility: 10 miles
2017/11/18 05:53 KELM 180553Z AUTO 00000KT 10SM CLR M02/M03 A2994 RMK AO2 SLP147 T10171033 10006 21033 58029
KIPT - Williamsport, Pennsylvania, USA
Distance from our station: ESE 91mi
Updated: Sat, 18-Nov-2017 12:54am EST
Clear
Clear
 Wind from ENE
Wind:: ENE 3 mph
Temperature: 32°F
Dew Point: 25°F
Humidity: 75%
Barometer: 30.00 inHg
Clouds: Clear
Visibility: 10 miles
2017/11/18 05:54 KIPT 180554Z AUTO 07003KT 10SM CLR 00/M04 A3000 RMK AO2 SLP163 T00001044 10039 21006 58025
 
KBTP - Butler Co., Pennsylvania, USA
Distance from our station: SW 98mi
Updated: Sat, 18-Nov-2017 12:56am EST
Clear
Clear
 Wind from SE
Wind:: SE 3 mph
Temperature: 36°F
Dew Point: 25°F
Humidity: 65%
Barometer: 29.84 inHg
Clouds: Clear
Visibility: 10 miles
2017/11/18 05:56 KBTP 180556Z AUTO 13003KT 10SM CLR 02/M04 A2984 RMK AO2 SLP122 T00171039 10022 21028 58040 FZRANO
KAOO - Altoona, Pennsylvania, USA
Distance from our station: S 99mi
Updated: Sat, 18-Nov-2017 12:53am EST
Clear
Clear
 Wind from calm
Wind:: Calm
Temperature: 36°F
Dew Point: 25°F
Humidity: 65%
Barometer: 29.96 inHg
Clouds: Clear
Visibility: 10 miles
2017/11/18 05:53 KAOO 180553Z AUTO 00000KT 10SM CLR 02/M04 A2996 RMK AO2 SLP154 T00221039 10039 20000 58026
 
KPIT - Pittsburg, Pennsylvania, USA
Distance from our station: SSW 126mi
Updated: Sat, 18-Nov-2017 12:51am EST
Overcast
Overcast
 Wind from SSE
Wind:: SSE 7 mph
Temperature: 34°F
Wind Chill: 28°F
Dew Point: 28°F
Humidity: 81%
Barometer: 29.84 inHg
Clouds: Overcast
Visibility: 10 miles
Cloud details: Overcast 23000 ft
2017/11/18 05:51 KPIT 180551Z 15006KT 10SM OVC230 01/M02 A2984 RMK AO2 SLP120 T00111022 10033 21006 58038
KCLE - Cleveland, Ohio, USA
Distance from our station: WSW 160mi
Updated: Sat, 18-Nov-2017 12:51am EST
Overcast
Overcast
 Wind from S
Wind:: S 16 mph, Gust: 24 mph
Temperature: 46°F
Wind Chill: 39°F
Dew Point: 27°F
Humidity: 46%
Barometer: 29.76 inHg
Clouds: Overcast
Visibility: 10 miles
Cloud details: Overcast 11000 ft
2017/11/18 05:51 KCLE 180551Z 18014G21KT 10SM OVC110 08/M03 A2976 RMK AO2 PK WND 17026/0539 SLP079 T00831028 10083 20056 56050 $